| Date | Time | Temp. (oF) | Dew Point (oF) | Rel. Hum. (%) | Press. (in.) | Wind Dir. | Wind Speed (mph) | Hourly Rainfall (in.) |
|
|---|---|---|---|---|---|---|---|---|---|
| 1 | 03/13 | 00:00 | 57 | 49 | 75 | 30.10 | S | 4 | 0.00 |
| 2 | 03/12 | 23:00 | 58 | 49 | 73 | 30.11 | SSE | 4 | 0.00 |
| 3 | 03/12 | 22:00 | 58 | 48 | 70 | 30.12 | SSE | 6 | 0.00 |
| 4 | 03/12 | 21:00 | 59 | 47 | 65 | 30.14 | S | 7 | 0.00 |
| 5 | 03/12 | 20:00 | 60 | 45 | 58 | 30.15 | S | 9 | 0.00 |
| 6 | 03/12 | 19:00 | 60 | 40 | 49 | 30.15 | S | 5 | 0.00 |
| 7 | 03/12 | 18:00 | 61 | 36 | 41 | 30.15 | SSW | 7 | 0.00 |
| 8 | 03/12 | 17:00 | 64 | 37 | 37 | 30.16 | S | 4 | 0.00 |
| 9 | 03/12 | 16:00 | 66 | 36 | 34 | 30.17 | SW | 2 | 0.00 |
| 10 | 03/12 | 15:00 | 65 | 39 | 39 | 30.19 | SSW | 9 | 0.00 |
| 11 | 03/12 | 14:00 | 65 | 38 | 38 | 30.22 | SSW | 6 | 0.00 |
| 12 | 03/12 | 13:00 | 63 | 41 | 45 | 30.27 | SSE | 7 | 0.00 |
| 13 | 03/12 | 12:00 | 58 | 37 | 47 | 30.29 | S | 5 | 0.00 |
| 14 | miss | miss | miss | miss | miss | miss | miss | miss | |
| 15 | 03/12 | 10:00 | 54 | 37 | 54 | 30.33 | ESE | 1 | 0.00 |
| 16 | 03/12 | 09:00 | 47 | 38 | 72 | 30.34 | SSE | 3 | 0.00 |
| 17 | 03/12 | 08:00 | 39 | 39 | 100 | 30.35 | E | 1 | 0.00 |
| 18 | 03/12 | 07:00 | 32 | 32 | 100 | 30.35 | ENE | 0 | 0.00 |
| 19 | 03/12 | 06:00 | 32 | 32 | 100 | 30.35 | NNE | 0 | 0.00 |
| 20 | 03/12 | 05:00 | 32 | 32 | 100 | 30.34 | NNE | 0 | 0.00 |
| 21 | 03/12 | 04:00 | 33 | 32 | 100 | 30.33 | NE | 0 | 0.00 |
| 22 | 03/12 | 03:00 | 35 | 34 | 97 | 30.33 | ESE | 0 | 0.00 |
| 23 | 03/12 | 02:00 | 36 | 34 | 95 | 30.35 | NE | 0 | 0.00 |
| 24 | 03/12 | 01:00 | 38 | 35 | 89 | 30.36 | ENE | 0 | 0.00 |